Time;durP1;ratioP1;P1;durP2;ratioP2;P2;SDS_P1;SDS_P2;PMS_P1;PMS_P2;Temp;Humidity;BMP_temperature;BMP_pressure;BME280_temperature;BME280_humidity;BME280_pressure;Samples;Min_cycle;Max_cycle;Signal;HPM_P1;HPM_P2
2023/06/19 00:02:17;;;;;;;10.52;9.45;;;16.10;1.00;;;;;;5067969;28;20029;-58
2023/06/19 00:04:43;;;;;;;11.13;9.90;;;16.00;1.00;;;;;;5052300;28;20388;-58
2023/06/19 00:07:08;;;;;;;15.55;9.43;;;16.10;1.00;;;;;;5051180;28;20476;-56
2023/06/19 00:09:34;;;;;;;13.35;9.05;;;16.10;1.00;;;;;;5052904;28;20056;-58
2023/06/19 00:12:01;;;;;;;19.23;10.38;;;16.00;1.00;;;;;;5060982;28;20033;-59
2023/06/19 00:14:26;;;;;;;13.65;9.05;;;16.00;1.00;;;;;;5054241;28;20052;-59
2023/06/19 00:16:52;;;;;;;11.35;9.52;;;15.90;1.00;;;;;;5070960;28;20056;-58
2023/06/19 00:19:18;;;;;;;11.13;9.48;;;15.90;1.00;;;;;;5074401;28;20089;-58
2023/06/19 00:21:44;;;;;;;11.13;9.93;;;15.90;1.00;;;;;;5074429;28;20028;-58
2023/06/19 00:24:10;;;;;;;12.20;10.27;;;15.90;1.00;;;;;;5074135;28;20025;-58
2023/06/19 00:26:36;;;;;;;11.15;9.77;;;15.90;1.00;;;;;;5074257;28;20043;-59
2023/06/19 00:29:02;;;;;;;13.68;10.30;;;15.80;1.00;;;;;;5057776;28;20017;-58
2023/06/19 00:31:28;;;;;;;13.55;9.85;;;15.80;1.00;;;;;;5054042;28;20407;-58
2023/06/19 00:33:54;;;;;;;13.63;10.15;;;15.70;1.00;;;;;;5054227;28;20082;-58
2023/06/19 00:36:21;;;;;;;15.55;10.23;;;15.60;1.00;;;;;;5053948;28;20021;-58
2023/06/19 00:38:47;;;;;;;21.23;11.15;;;15.60;1.00;;;;;;5054201;28;20036;-59
2023/06/19 00:41:14;;;;;;;12.90;9.60;;;15.50;1.00;;;;;;5056718;28;20024;-59
2023/06/19 00:43:40;;;;;;;10.48;9.40;;;15.50;1.00;;;;;;5067424;28;20025;-59
2023/06/19 00:46:06;;;;;;;19.60;10.05;;;15.40;1.00;;;;;;5052482;28;20146;-59
2023/06/19 00:48:32;;;;;;;10.68;9.35;;;15.40;1.00;;;;;;5054029;28;20363;-59
2023/06/19 00:50:59;;;;;;;12.52;9.75;;;15.30;1.00;;;;;;5068477;28;20024;-58
2023/06/19 00:53:25;;;;;;;10.52;9.32;;;15.20;1.00;;;;;;5073606;28;20028;-58
2023/06/19 00:55:53;;;;;;;19.70;10.93;;;15.20;1.00;;;;;;5073864;28;20462;-56
2023/06/19 00:58:20;;;;;;;10.77;9.50;;;15.10;1.00;;;;;;5073199;28;20032;-59
2023/06/19 01:00:46;;;;;;;14.38;10.50;;;15.10;1.00;;;;;;5060714;28;20502;-59
2023/06/19 01:03:11;;;;;;;11.20;10.05;;;15.00;1.00;;;;;;5065588;28;20036;-58
2023/06/19 01:05:37;;;;;;;13.23;10.20;;;15.00;1.00;;;;;;5073613;28;20027;-59
2023/06/19 01:08:12;;;;;;;15.57;9.70;;;14.90;1.00;;;;;;5062283;28;20087;-59
2023/06/19 01:10:52;;;;;;;12.57;9.93;;;14.80;1.00;;;;;;5069758;28;20470;-58
2023/06/19 01:13:36;;;;;;;15.30;10.23;;;14.70;1.00;;;;;;5061149;28;20391;-58
2023/06/19 01:16:04;;;;;;;15.30;10.85;;;14.60;1.00;;;;;;5059170;28;20024;-59
2023/06/19 01:18:31;;;;;;;15.65;10.07;;;14.40;1.00;;;;;;5054362;28;20044;-58
2023/06/19 01:21:08;;;;;;;13.05;10.35;;;14.40;1.00;;;;;;5071846;28;20359;-57
2023/06/19 01:23:34;;;;;;;21.85;10.98;;;14.30;1.00;;;;;;5059885;28;20036;-58
2023/06/19 01:25:59;;;;;;;16.67;11.35;;;14.20;1.00;;;;;;5072225;28;20029;-58
2023/06/19 01:28:26;;;;;;;22.75;11.82;;;14.20;1.00;;;;;;5072435;28;20111;-59
2023/06/19 01:30:54;;;;;;;14.45;9.85;;;14.10;1.00;;;;;;5054354;28;20021;-56
2023/06/19 01:33:27;;;;;;;11.93;10.73;;;14.10;3.00;;;;;;5059766;28;20355;-59
2023/06/19 01:35:55;;;;;;;16.88;11.80;;;14.10;1.00;;;;;;5057245;28;20025;-58
2023/06/19 01:38:25;;;;;;;17.92;11.20;;;14.10;1.00;;;;;;5055253;28;20068;-59
2023/06/19 01:40:53;;;;;;;19.58;10.63;;;14.00;1.00;;;;;;5072920;28;20033;-57
2023/06/19 01:43:19;;;;;;;11.90;10.07;;;13.90;1.00;;;;;;5072679;28;20026;-58
2023/06/19 01:45:45;;;;;;;15.40;11.20;;;13.90;1.00;;;;;;5072889;28;20024;-59
2023/06/19 01:48:11;;;;;;;14.00;10.85;;;13.80;1.00;;;;;;5072711;28;20475;-57
2023/06/19 01:50:37;;;;;;;13.63;10.57;;;13.80;1.00;;;;;;5069334;28;20051;-58
2023/06/19 01:53:02;;;;;;;13.60;12.20;;;13.70;1.00;;;;;;5052711;28;20036;-58
2023/06/19 01:55:28;;;;;;;13.98;11.57;;;13.70;1.00;;;;;;5051282;28;20028;-59
2023/06/19 01:57:53;;;;;;;16.75;10.80;;;13.60;1.00;;;;;;5051316;28;20041;-58
2023/06/19 02:00:19;;;;;;;15.02;11.23;;;13.50;1.00;;;;;;5052358;28;20430;-57
2023/06/19 02:02:45;;;;;;;16.45;12.63;;;13.50;1.00;;;;;;5052504;28;20474;-58
2023/06/19 02:05:11;;;;;;;23.33;12.35;;;13.40;1.00;;;;;;5059089;28;20024;-59
2023/06/19 02:07:36;;;;;;;15.40;11.45;;;13.30;1.00;;;;;;5070654;28;20029;-58
2023/06/19 02:10:02;;;;;;;15.80;12.88;;;13.30;3.60;;;;;;5064999;28;20094;-58
2023/06/19 02:12:28;;;;;;;18.58;11.55;;;13.30;1.00;;;;;;5063025;28;20039;-57
2023/06/19 02:14:54;;;;;;;15.13;12.60;;;13.30;1.00;;;;;;5057695;28;20035;-56
2023/06/19 02:17:19;;;;;;;14.02;11.82;;;13.30;15.00;;;;;;5051828;28;20499;-58
2023/06/19 02:19:45;;;;;;;16.75;12.10;;;13.30;17.00;;;;;;5067031;28;20036;-58
2023/06/19 02:22:11;;;;;;;20.70;12.73;;;13.20;19.10;;;;;;5051940;28;20022;-58
2023/06/19 02:24:39;;;;;;;17.38;11.95;;;13.30;7.80;;;;;;5051916;28;20032;-58
2023/06/19 02:27:06;;;;;;;16.65;12.48;;;13.20;1.00;;;;;;5051928;28;20029;-56
2023/06/19 02:29:33;;;;;;;19.92;12.73;;;13.10;1.00;;;;;;5054511;28;20032;-58
2023/06/19 02:31:59;;;;;;;19.33;13.07;;;13.00;5.90;;;;;;5071993;28;20399;-55
2023/06/19 02:34:25;;;;;;;17.35;12.27;;;13.00;10.70;;;;;;5071631;28;20383;-58
2023/06/19 02:36:51;;;;;;;20.38;12.18;;;12.90;12.60;;;;;;5055843;28;20555;-57
2023/06/19 02:39:18;;;;;;;20.48;11.93;;;13.00;9.80;;;;;;5053683;28;20120;-58
2023/06/19 02:41:45;;;;;;;16.30;12.68;;;12.90;17.50;;;;;;5053009;28;20103;-58
2023/06/19 02:44:12;;;;;;;17.50;13.50;;;13.00;14.30;;;;;;5062672;28;20021;-56
2023/06/19 02:46:37;;;;;;;16.58;12.60;;;12.90;22.30;;;;;;5051836;28;20036;-58
2023/06/19 02:49:03;;;;;;;18.25;12.18;;;12.90;18.50;;;;;;5065187;28;20025;-58
2023/06/19 02:51:29;;;;;;;16.50;12.13;;;12.90;20.60;;;;;;5070348;28;20060;-58
2023/06/19 02:53:55;;;;;;;18.05;13.40;;;12.90;16.40;;;;;;5064871;28;20025;-59
2023/06/19 02:56:20;;;;;;;28.42;12.80;;;12.80;21.70;;;;;;5050213;28;20024;-58
2023/06/19 02:58:46;;;;;;;21.35;13.23;;;12.80;31.30;;;;;;5063631;28;20028;-58
2023/06/19 03:01:12;;;;;;;14.25;12.32;;;12.80;28.10;;;;;;5071478;28;20028;-59
2023/06/19 03:03:38;;;;;;;30.40;14.55;;;12.80;18.00;;;;;;5063482;28;20496;-58
2023/06/19 03:06:07;;;;;;;21.77;12.73;;;12.80;12.60;;;;;;5051245;28;20087;-59
2023/06/19 03:08:34;;;;;;;17.20;13.00;;;12.80;7.80;;;;;;5057345;28;20024;-58
2023/06/19 03:11:00;;;;;;;20.10;13.35;;;12.80;12.60;;;;;;5071247;28;20460;-56
2023/06/19 03:13:25;;;;;;;19.20;12.38;;;12.70;23.20;;;;;;5067464;28;20047;-57
2023/06/19 03:15:51;;;;;;;16.83;13.32;;;12.70;26.80;;;;;;5069980;28;20173;-58
2023/06/19 03:18:17;;;;;;;17.10;13.50;;;12.70;29.00;;;;;;5069549;28;20383;-59
2023/06/19 03:20:42;;;;;;;21.63;15.30;;;12.60;40.70;;;;;;5065177;28;20032;-58
2023/06/19 03:23:08;;;;;;;13.80;12.38;;;12.70;36.60;;;;;;5052255;28;20040;-58
2023/06/19 03:25:34;;;;;;;18.15;12.23;;;12.70;16.70;;;;;;5051352;28;20090;-57
2023/06/19 03:28:04;;;;;;;16.98;12.07;;;12.70;19.80;;;;;;5050113;28;20098;-56
2023/06/19 03:30:30;;;;;;;16.85;12.57;;;12.70;21.40;;;;;;5051246;28;20425;-57
2023/06/19 03:32:56;;;;;;;20.48;13.20;;;12.70;24.40;;;;;;5049993;28;20044;-57
2023/06/19 03:35:21;;;;;;;23.13;13.52;;;12.80;28.80;;;;;;5063207;28;20025;-58
2023/06/19 03:37:47;;;;;;;19.10;12.15;;;12.80;25.40;;;;;;5051278;28;20052;-58
2023/06/19 03:40:13;;;;;;;18.02;11.32;;;12.90;29.30;;;;;;5059717;28;20029;-57
2023/06/19 03:42:40;;;;;;;20.05;11.95;;;13.00;19.60;;;;;;5071250;28;20024;-59
2023/06/19 03:45:06;;;;;;;20.38;12.30;;;13.00;13.90;;;;;;5069394;28;20043;-57
2023/06/19 03:47:32;;;;;;;23.30;12.63;;;13.10;9.40;;;;;;5071957;28;20016;-59
2023/06/19 03:49:57;;;;;;;18.33;12.95;;;13.10;22.80;;;;;;5075151;28;20455;-58
2023/06/19 03:52:23;;;;;;;18.80;11.93;;;13.20;24.80;;;;;;5074842;28;20534;-58
2023/06/19 03:54:49;;;;;;;17.45;13.43;;;13.30;19.00;;;;;;5074990;28;20422;-58
2023/06/19 03:57:15;;;;;;;24.25;13.85;;;13.40;19.00;;;;;;5074481;28;20070;-59
2023/06/19 03:59:40;;;;;;;14.88;12.25;;;13.40;21.40;;;;;;5074157;28;20028;-59
2023/06/19 04:02:06;;;;;;;20.17;13.63;;;13.50;29.70;;;;;;5072526;28;20387;-58
2023/06/19 04:04:32;;;;;;;15.18;12.40;;;13.70;21.40;;;;;;5062319;28;20041;-58
2023/06/19 04:06:59;;;;;;;14.82;13.32;;;13.90;14.10;;;;;;5053291;28;20079;-59
2023/06/19 04:09:24;;;;;;;25.10;15.48;;;14.00;21.60;;;;;;5054159;28;20024;-59
2023/06/19 04:11:50;;;;;;;19.52;13.77;;;14.10;21.50;;;;;;5055969;28;20029;-59
2023/06/19 04:14:16;;;;;;;18.77;14.70;;;14.20;20.50;;;;;;5073139;28;20104;-59
2023/06/19 04:16:42;;;;;;;19.02;14.30;;;14.40;19.10;;;;;;5073862;28;20024;-59
2023/06/19 04:19:07;;;;;;;20.65;14.02;;;14.50;12.90;;;;;;5073915;28;20024;-58
2023/06/19 04:21:33;;;;;;;21.42;14.40;;;14.70;25.90;;;;;;5071837;28;20444;-57
2023/06/19 04:23:59;;;;;;;21.40;14.40;;;14.80;9.90;;;;;;5054143;28;20039;-59
2023/06/19 04:26:25;;;;;;;16.42;13.73;;;14.80;11.50;;;;;;5054188;28;20083;-57
2023/06/19 04:28:51;;;;;;;16.98;13.88;;;14.80;21.40;;;;;;5055253;28;20044;-58
2023/06/19 04:31:19;;;;;;;17.67;13.60;;;14.90;9.10;;;;;;5070185;28;20025;-59
2023/06/19 04:33:45;;;;;;;18.02;13.93;;;15.00;1.00;;;;;;5055843;28;20162;-58
2023/06/19 04:36:11;;;;;;;22.60;15.07;;;15.10;1.00;;;;;;5054000;28;20112;-57
2023/06/19 04:38:37;;;;;;;15.80;12.80;;;15.10;1.00;;;;;;5054152;28;20117;-59
2023/06/19 04:41:02;;;;;;;15.40;12.82;;;15.20;1.00;;;;;;5055046;28;20059;-58
2023/06/19 04:43:28;;;;;;;16.30;13.00;;;15.40;1.00;;;;;;5068828;28;20117;-58
2023/06/19 04:45:53;;;;;;;14.95;13.30;;;15.50;1.00;;;;;;5073989;28;20163;-58
2023/06/19 04:48:19;;;;;;;18.95;13.75;;;15.60;1.00;;;;;;5073600;28;20031;-58
2023/06/19 04:50:45;;;;;;;17.30;12.55;;;15.80;1.00;;;;;;5073207;28;20384;-57
2023/06/19 04:53:11;;;;;;;15.85;12.57;;;15.80;1.00;;;;;;5058893;28;20040;-59
2023/06/19 04:55:37;;;;;;;16.17;13.48;;;15.90;1.00;;;;;;5069068;28;20037;-59
2023/06/19 04:58:03;;;;;;;14.68;12.85;;;16.00;1.00;;;;;;5072976;28;20043;-58
2023/06/19 05:00:29;;;;;;;20.55;13.77;;;16.10;1.00;;;;;;5073178;28;20556;-57
2023/06/19 05:02:59;;;;;;;18.67;13.30;;;16.10;1.00;;;;;;5066570;28;20032;-59
2023/06/19 05:05:26;;;;;;;21.02;13.93;;;16.20;1.00;;;;;;5057713;28;20028;-59
2023/06/19 05:07:52;;;;;;;17.73;12.98;;;16.30;1.00;;;;;;5071908;28;20029;-57
2023/06/19 05:10:19;;;;;;;23.73;15.35;;;16.40;1.00;;;;;;5065640;28;20036;-57
2023/06/19 05:12:44;;;;;;;18.23;13.13;;;16.40;1.00;;;;;;5071430;28;20467;-58
2023/06/19 05:15:10;;;;;;;22.80;12.98;;;16.50;1.00;;;;;;5056567;28;20060;-58
2023/06/19 05:17:38;;;;;;;19.20;15.45;;;16.70;1.00;;;;;;5073129;28;20387;-57
2023/06/19 05:20:06;;;;;;;19.27;13.40;;;16.70;1.00;;;;;;5073011;28;20118;-57
2023/06/19 05:22:34;;;;;;;22.65;13.65;;;16.50;1.00;;;;;;5073274;28;20028;-58
2023/06/19 05:25:00;;;;;;;15.32;13.32;;;16.50;1.00;;;;;;5053331;28;20025;-56
2023/06/19 05:27:26;;;;;;;23.67;12.88;;;16.50;1.00;;;;;;5064929;28;20402;-59
2023/06/19 05:29:51;;;;;;;19.27;13.90;;;16.50;1.00;;;;;;5072565;28;20025;-57
2023/06/19 05:32:17;;;;;;;23.98;14.43;;;16.60;1.00;;;;;;5072753;28;20037;-58
2023/06/19 05:34:43;;;;;;;17.85;13.45;;;16.60;1.00;;;;;;5059754;28;20060;-55
2023/06/19 05:37:08;;;;;;;15.60;12.85;;;16.60;1.00;;;;;;5068732;28;20036;-57
2023/06/19 05:39:34;;;;;;;17.95;12.73;;;16.70;1.00;;;;;;5072612;28;20035;-57
2023/06/19 05:42:00;;;;;;;15.57;13.15;;;16.90;1.00;;;;;;5072698;28;20395;-57
2023/06/19 05:44:25;;;;;;;14.68;12.80;;;16.80;1.00;;;;;;5072295;28;20074;-53
2023/06/19 05:46:51;;;;;;;17.65;13.32;;;17.00;1.00;;;;;;5072629;28;20030;-58
2023/06/19 05:49:17;;;;;;;15.52;13.63;;;16.90;1.00;;;;;;5072662;28;20031;-54
2023/06/19 05:51:43;;;;;;;18.55;13.32;;;16.80;1.00;;;;;;5072354;28;20017;-57
2023/06/19 05:54:09;;;;;;;19.27;13.55;;;16.70;1.00;;;;;;5072417;28;20074;-56
2023/06/19 05:56:36;;;;;;;18.45;13.52;;;16.70;1.00;;;;;;5072365;28;20426;-56
2023/06/19 05:59:02;;;;;;;16.05;13.13;;;16.80;1.00;;;;;;5072674;28;20111;-56
2023/06/19 06:01:28;;;;;;;23.52;13.60;;;16.80;1.00;;;;;;5072273;28;20459;-55
2023/06/19 06:03:55;;;;;;;20.75;14.50;;;16.80;1.00;;;;;;5058960;28;20076;-55
2023/06/19 06:06:22;;;;;;;17.85;15.02;;;16.90;1.00;;;;;;5061747;28;20376;-58
2023/06/19 06:08:48;;;;;;;26.52;15.52;;;16.90;1.00;;;;;;5070483;28;20482;-58
2023/06/19 06:11:14;;;;;;;17.30;13.00;;;17.00;1.00;;;;;;5061569;28;20118;-56
2023/06/19 06:13:39;;;;;;;15.00;12.80;;;17.20;1.00;;;;;;5050956;28;20365;-56
2023/06/19 06:16:05;;;;;;;16.38;12.80;;;17.30;1.00;;;;;;5066996;28;20032;-56
2023/06/19 06:18:31;;;;;;;17.40;13.95;;;17.30;1.00;;;;;;5053361;28;20032;-58
2023/06/19 06:20:58;;;;;;;20.20;12.93;;;17.40;1.00;;;;;;5055883;28;20017;-57
2023/06/19 06:23:24;;;;;;;13.90;11.95;;;17.50;1.00;;;;;;5071528;28;20119;-58
2023/06/19 06:25:50;;;;;;;14.93;13.43;;;17.70;1.00;;;;;;5071815;28;20111;-55
2023/06/19 06:28:16;;;;;;;13.85;12.02;;;17.70;1.00;;;;;;5066905;28;20115;-58
2023/06/19 06:30:41;;;;;;;22.52;13.20;;;17.70;1.00;;;;;;5072100;28;20100;-56
2023/06/19 06:33:07;;;;;;;16.85;13.27;;;17.70;1.00;;;;;;5071581;28;20032;-58
2023/06/19 06:35:35;;;;;;;16.08;13.57;;;17.90;1.00;;;;;;5071643;28;20146;-56
2023/06/19 06:38:01;;;;;;;18.60;13.13;;;18.10;1.00;;;;;;5070075;28;20031;-57
2023/06/19 06:40:27;;;;;;;16.75;14.48;;;18.10;1.00;;;;;;5070212;28;20513;-56
2023/06/19 06:42:53;;;;;;;15.88;14.13;;;17.90;1.00;;;;;;5065056;28;20120;-57
2023/06/19 06:45:19;;;;;;;20.80;13.27;;;18.00;1.00;;;;;;5060740;28;20483;-57
2023/06/19 06:47:45;;;;;;;22.13;13.18;;;18.00;1.00;;;;;;5057265;28;20074;-55
2023/06/19 06:50:11;;;;;;;22.58;14.57;;;17.90;99.90;;;;;;5060911;28;20048;-58
2023/06/19 06:52:37;;;;;;;21.50;14.38;;;18.00;99.90;;;;;;5059776;28;20016;-58
2023/06/19 06:55:03;;;;;;;15.18;13.63;;;18.10;99.90;;;;;;5071704;28;20055;-54
2023/06/19 06:57:29;;;;;;;19.27;14.15;;;18.20;1.00;;;;;;5057634;28;20044;-58
2023/06/19 06:59:55;;;;;;;17.52;13.48;;;18.40;1.00;;;;;;5051206;28;20488;-58
2023/06/19 07:02:20;;;;;;;24.13;14.20;;;18.30;1.00;;;;;;5050949;28;20029;-61
2023/06/19 07:04:46;;;;;;;19.23;13.63;;;18.50;1.00;;;;;;5051451;28;20044;-57
2023/06/19 07:07:12;;;;;;;19.88;14.50;;;18.60;1.00;;;;;;5050768;28;20108;-58
2023/06/19 07:09:37;;;;;;;18.38;13.98;;;18.80;99.90;;;;;;5060820;28;20048;-58
2023/06/19 07:12:04;;;;;;;14.98;12.98;;;19.00;99.90;;;;;;5050318;28;20464;-58
2023/06/19 07:14:30;;;;;;;22.45;12.93;;;19.40;99.90;;;;;;5059188;28;20021;-57
2023/06/19 07:16:56;;;;;;;17.10;13.93;;;19.50;99.90;;;;;;5070306;28;20024;-58
2023/06/19 07:19:22;;;;;;;15.35;13.75;;;19.70;92.80;;;;;;5068077;28;20519;-56
2023/06/19 07:21:50;;;;;;;15.20;13.60;;;19.80;1.00;;;;;;5070040;28;20040;-56
2023/06/19 07:24:15;;;;;;;16.55;13.48;;;20.00;99.90;;;;;;5066985;28;20031;-58
2023/06/19 07:26:41;;;;;;;18.73;13.40;;;20.10;99.90;;;;;;5072248;28;20020;-59
2023/06/19 07:29:07;;;;;;;17.25;12.95;;;20.30;6.00;;;;;;5064815;28;20051;-57
2023/06/19 07:31:32;;;;;;;23.55;13.55;;;20.50;1.00;;;;;;5074529;28;20033;-57
2023/06/19 07:33:58;;;;;;;17.15;12.45;;;20.70;1.00;;;;;;5074155;28;20064;-57
2023/06/19 07:36:23;;;;;;;16.27;13.07;;;20.70;99.90;;;;;;5073861;28;20045;-54
2023/06/19 07:38:49;;;;;;;15.45;12.05;;;20.70;99.90;;;;;;5074444;28;20021;-57
2023/06/19 07:41:15;;;;;;;17.48;12.13;;;20.80;1.00;;;;;;5074010;28;20024;-57
2023/06/19 07:43:40;;;;;;;17.63;12.45;;;20.90;99.90;;;;;;5075188;28;20976;-58
2023/06/19 07:46:06;;;;;;;21.02;11.68;;;21.10;99.90;;;;;;5074010;28;20020;-58
2023/06/19 07:48:32;;;;;;;15.52;12.23;;;21.30;99.90;;;;;;5073945;28;20028;-56
2023/06/19 07:50:57;;;;;;;16.85;11.35;;;21.50;99.90;;;;;;5072994;28;20045;-56
2023/06/19 07:53:23;;;;;;;14.27;11.70;;;21.50;99.90;;;;;;5071259;28;20117;-58
2023/06/19 07:55:48;;;;;;;12.48;11.18;;;21.70;99.90;;;;;;5072635;28;20085;-58
2023/06/19 07:58:14;;;;;;;18.45;10.27;;;22.10;99.90;;;;;;5072120;28;20047;-58
2023/06/19 08:00:40;;;;;;;12.05;10.73;;;22.40;1.00;;;;;;5072422;28;20432;-58
2023/06/19 08:03:05;;;;;;;14.98;11.75;;;22.50;99.90;;;;;;5072138;28;20039;-59
2023/06/19 08:05:31;;;;;;;14.63;11.38;;;23.00;1.00;;;;;;5072222;28;20028;-59
2023/06/19 08:07:58;;;;;;;16.05;11.95;;;23.20;1.00;;;;;;5072849;28;20027;-59
2023/06/19 08:10:24;;;;;;;13.30;10.93;;;23.80;1.00;;;;;;5074464;28;20520;-59
2023/06/19 08:12:50;;;;;;;16.60;12.05;;;24.20;1.00;;;;;;5074614;28;20064;-57
2023/06/19 08:15:15;;;;;;;15.60;10.40;;;24.20;99.90;;;;;;5074553;28;20367;-60
2023/06/19 08:17:42;;;;;;;13.98;10.45;;;23.90;99.90;;;;;;5074584;28;20459;-59
2023/06/19 08:20:08;;;;;;;15.77;10.32;;;23.90;99.90;;;;;;5074223;28;20035;-59
2023/06/19 08:22:34;;;;;;;14.70;11.82;;;24.10;99.90;;;;;;5074447;28;20012;-58
2023/06/19 08:25:00;;;;;;;15.30;11.57;;;24.10;99.90;;;;;;5074282;28;20024;-58
2023/06/19 08:27:25;;;;;;;13.05;10.95;;;24.00;99.90;;;;;;5074282;28;20021;-58
2023/06/19 08:29:51;;;;;;;18.70;11.57;;;23.80;1.00;;;;;;5073136;28;20557;-59
2023/06/19 08:32:17;;;;;;;13.10;10.43;;;23.70;1.00;;;;;;5074273;28;20078;-58
2023/06/19 08:34:43;;;;;;;13.60;11.77;;;23.60;1.00;;;;;;5073273;28;20036;-58
2023/06/19 08:37:08;;;;;;;12.15;10.20;;;23.40;99.90;;;;;;5073940;28;20495;-58
2023/06/19 08:39:37;;;;;;;12.73;10.18;;;23.30;99.90;;;;;;5074252;28;20032;-59
2023/06/19 08:42:04;;;;;;;12.00;9.82;;;23.50;99.90;;;;;;5074275;28;20085;-60
2023/06/19 08:44:29;;;;;;;16.35;12.43;;;23.60;99.90;;;;;;5074001;28;20379;-58
2023/06/19 08:46:57;;;;;;;13.85;11.25;;;23.90;99.90;;;;;;5074112;28;20028;-59
2023/06/19 08:49:22;;;;;;;12.95;10.70;;;24.40;99.90;;;;;;5073795;28;20028;-59
2023/06/19 08:51:48;;;;;;;11.75;10.15;;;25.10;99.90;;;;;;5073988;28;20025;-59
2023/06/19 08:54:14;;;;;;;14.55;11.02;;;26.00;99.90;;;;;;5073810;28;20029;-58
2023/06/19 08:56:39;;;;;;;14.60;11.75;;;26.20;26.40;;;;;;5046495;28;20045;-58
2023/06/19 08:59:12;;;;;;;16.65;10.30;;;26.10;13.30;;;;;;5042479;28;20471;-60
2023/06/19 09:01:39;;;;;;;15.40;8.88;;;26.20;1.00;;;;;;5054960;28;20031;-59
2023/06/19 09:04:13;;;;;;;13.45;9.38;;;26.40;1.00;;;;;;5042826;28;20045;-58
2023/06/19 09:06:47;;;;;;;13.10;9.27;;;26.50;1.00;;;;;;5043631;28;20028;-59
2023/06/19 09:09:14;;;;;;;14.25;10.50;;;26.50;1.00;;;;;;5045926;28;20079;-59
2023/06/19 09:11:43;;;;;;;10.85;8.98;;;26.60;1.00;;;;;;5049065;28;20116;-59
2023/06/19 09:14:12;;;;;;;11.05;9.45;;;26.90;1.00;;;;;;5042244;28;20033;-59
2023/06/19 09:16:41;;;;;;;17.52;10.13;;;26.90;1.00;;;;;;5042481;28;20028;-59
2023/06/19 09:19:07;;;;;;;10.82;9.40;;;27.20;1.00;;;;;;5041972;28;20088;-58
2023/06/19 09:21:36;;;;;;;12.63;8.90;;;27.30;1.00;;;;;;5046205;28;20107;-59
2023/06/19 09:24:04;;;;;;;16.02;10.20;;;27.50;1.00;;;;;;5046607;28;20732;-58
2023/06/19 09:26:30;;;;;;;17.92;10.60;;;27.40;1.00;;;;;;5042936;28;20108;-59
2023/06/19 09:28:55;;;;;;;16.13;11.32;;;27.40;1.00;;;;;;5041464;28;20040;-58
2023/06/19 09:31:32;;;;;;;11.23;9.75;;;26.80;1.00;;;;;;5042705;28;20020;-59
2023/06/19 09:33:58;;;;;;;11.68;9.90;;;26.40;1.00;;;;;;5042322;28;20115;-59
2023/06/19 09:36:26;;;;;;;13.07;10.00;;;26.40;1.00;;;;;;5041699;28;20152;-58
2023/06/19 09:38:52;;;;;;;11.93;10.18;;;26.30;1.00;;;;;;5040757;28;20032;-59
2023/06/19 09:41:19;;;;;;;12.85;10.65;;;26.40;1.00;;;;;;5040803;28;20374;-59
2023/06/19 09:43:47;;;;;;;22.02;11.02;;;26.50;1.00;;;;;;5041626;28;20129;-59
2023/06/19 09:46:14;;;;;;;11.50;10.30;;;26.40;1.00;;;;;;5043564;28;20066;-58
2023/06/19 09:48:45;;;;;;;13.30;9.90;;;26.50;1.00;;;;;;5041162;28;20025;-58
2023/06/19 09:51:17;;;;;;;15.88;9.68;;;26.70;1.00;;;;;;5039607;28;20114;-59
2023/06/19 09:53:45;;;;;;;13.87;9.53;;;26.60;1.00;;;;;;5041866;28;20028;-58
2023/06/19 09:56:13;;;;;;;14.02;9.55;;;26.40;1.00;;;;;;5040857;28;20037;-58
2023/06/19 09:58:40;;;;;;;12.85;9.70;;;26.50;1.00;;;;;;5040831;28;20504;-58
2023/06/19 10:01:07;;;;;;;11.90;9.32;;;26.60;1.00;;;;;;5040540;28;20037;-59
2023/06/19 10:03:34;;;;;;;12.85;10.40;;;26.70;1.00;;;;;;5043927;28;20086;-59
2023/06/19 10:06:02;;;;;;;14.98;10.65;;;26.50;1.00;;;;;;5052538;28;20135;-59
2023/06/19 10:08:38;;;;;;;17.00;9.30;;;26.30;1.00;;;;;;5052079;28;20108;-59
2023/06/19 10:11:04;;;;;;;16.38;8.95;;;26.30;1.00;;;;;;5052338;28;20076;-59
2023/06/19 10:13:40;;;;;;;15.50;9.20;;;26.80;1.00;;;;;;5052088;28;20044;-59
2023/06/19 10:16:07;;;;;;;11.05;9.27;;;27.20;1.00;;;;;;5051607;28;20032;-59
2023/06/19 10:18:45;;;;;;;13.80;9.82;;;27.40;1.00;;;;;;5052191;28;20035;-59
2023/06/19 10:21:20;;;;;;;22.70;10.13;;;27.40;1.00;;;;;;5052033;28;20052;-59
2023/06/19 10:23:57;;;;;;;15.52;8.38;;;27.00;1.00;;;;;;5052141;28;20021;-58
2023/06/19 10:26:33;;;;;;;12.70;9.02;;;27.70;1.00;;;;;;5051993;28;20078;-59
2023/06/19 10:28:59;;;;;;;14.25;9.30;;;28.10;1.00;;;;;;5052115;28;20029;-60
2023/06/19 10:31:25;;;;;;;10.88;9.05;;;28.20;1.00;;;;;;5051773;28;20060;-58
2023/06/19 10:33:51;;;;;;;13.98;8.82;;;28.00;99.90;;;;;;5051932;28;20021;-58
2023/06/19 10:36:22;;;;;;;16.48;9.57;;;28.00;99.90;;;;;;5051722;28;20037;-60
2023/06/19 10:38:49;;;;;;;15.30;8.52;;;28.40;99.90;;;;;;5051918;28;20021;-59
2023/06/19 10:41:19;;;;;;;10.65;8.75;;;28.60;99.90;;;;;;5051701;28;20033;-59
2023/06/19 10:44:05;;;;;;;17.50;8.43;;;29.20;99.90;;;;;;5051829;28;20025;-60
2023/06/19 10:46:35;;;;;;;16.73;9.32;;;29.30;99.90;;;;;;5051898;28;20056;-59
2023/06/19 10:49:04;;;;;;;19.17;13.30;;;29.60;99.90;;;;;;5051839;28;20009;-59
2023/06/19 10:51:30;;;;;;;11.23;8.30;;;29.80;99.90;;;;;;5051676;28;20021;-60
2023/06/19 10:53:57;;;;;;;12.93;8.55;;;30.60;99.90;;;;;;5051751;28;20096;-59
2023/06/19 10:56:24;;;;;;;10.35;9.07;;;30.40;99.90;;;;;;5050921;28;20060;-59
2023/06/19 10:59:00;;;;;;;12.77;8.10;;;29.80;99.90;;;;;;5051706;28;20512;-59
2023/06/19 11:01:44;;;;;;;20.52;8.05;;;30.40;99.90;;;;;;5051580;28;20112;-59
2023/06/19 11:04:11;;;;;;;11.02;8.35;;;30.30;99.90;;;;;;5051315;28;20033;-60
2023/06/19 11:06:38;;;;;;;16.88;8.27;;;30.40;99.90;;;;;;5051505;28;20040;-59
2023/06/19 11:09:05;;;;;;;12.73;9.25;;;30.70;99.90;;;;;;5051338;28;20025;-59
2023/06/19 11:11:47;;;;;;;9.95;7.93;;;31.00;99.90;;;;;;5051535;28;20395;-58
2023/06/19 11:14:14;;;;;;;11.50;8.43;;;31.70;99.90;;;;;;5051227;28;20091;-59
2023/06/19 11:16:41;;;;;;;13.07;7.90;;;31.70;99.90;;;;;;5050031;28;20031;-59
2023/06/19 11:19:08;;;;;;;10.68;8.98;;;31.70;99.90;;;;;;5051226;28;20074;-59
2023/06/19 11:21:39;;;;;;;14.00;8.27;;;32.10;99.90;;;;;;5051292;28;20033;-59
2023/06/19 11:24:11;;;;;;;11.52;8.27;;;32.50;99.90;;;;;;5051248;28;20025;-59
2023/06/19 11:26:52;;;;;;;10.70;7.32;;;32.70;99.90;;;;;;5051449;28;20021;-59
2023/06/19 11:29:29;;;;;;;8.85;7.43;;;32.30;99.90;;;;;;5051142;28;20032;-59
2023/06/19 11:32:16;;;;;;;13.57;7.63;;;32.20;99.90;;;;;;5050057;28;20376;-59
2023/06/19 11:34:43;;;;;;;27.05;8.35;;;32.60;99.90;;;;;;5051298;28;20033;-59
2023/06/19 11:37:17;;;;;;;11.57;7.68;;;32.30;99.90;;;;;;5051125;28;20075;-60
2023/06/19 11:39:47;;;;;;;15.48;8.13;;;32.30;99.90;;;;;;5051267;28;20116;-59
2023/06/19 11:42:14;;;;;;;12.13;7.85;;;32.30;99.90;;;;;;5050838;28;20372;-59
2023/06/19 11:45:03;;;;;;;16.83;8.35;;;32.10;99.90;;;;;;5050934;28;20028;-59
2023/06/19 11:47:33;;;;;;;8.98;8.07;;;32.10;99.90;;;;;;5051043;28;20061;-60
2023/06/19 11:50:00;;;;;;;10.25;7.60;;;32.30;99.90;;;;;;5051123;28;20055;-59
2023/06/19 11:52:26;;;;;;;11.75;8.15;;;32.50;99.90;;;;;;5050973;28;20448;-59
2023/06/19 11:54:52;;;;;;;9.63;7.53;;;32.90;99.90;;;;;;5051087;28;20029;-59
2023/06/19 11:57:17;;;;;;;7.95;7.15;;;33.40;99.90;;;;;;5050799;28;20051;-60
2023/06/19 11:59:43;;;;;;;7.55;6.75;;;33.40;99.90;;;;;;5050732;28;20502;-60
2023/06/19 12:02:09;;;;;;;12.18;7.32;;;33.60;99.90;;;;;;5050208;28;20060;-59
2023/06/19 12:04:35;;;;;;;11.43;7.15;;;33.40;99.90;;;;;;5050804;28;20029;-59
2023/06/19 12:07:01;;;;;;;8.70;6.55;;;33.50;99.90;;;;;;5050297;28;20052;-59
2023/06/19 12:09:27;;;;;;;10.60;7.15;;;32.70;99.90;;;;;;5052457;28;20041;-60
2023/06/19 12:11:53;;;;;;;12.00;6.68;;;32.50;99.90;;;;;;5054452;28;20013;-60
2023/06/19 12:14:20;;;;;;;7.35;6.65;;;32.80;99.90;;;;;;5054376;28;20017;-59
2023/06/19 12:16:46;;;;;;;8.23;7.43;;;33.60;99.90;;;;;;5054259;28;20025;-58
2023/06/19 12:19:12;;;;;;;9.05;7.28;;;34.00;99.90;;;;;;5052798;28;20025;-59
2023/06/19 12:21:37;;;;;;;12.05;7.13;;;34.40;99.90;;;;;;5054082;28;20044;-59
2023/06/19 12:24:03;;;;;;;9.48;7.30;;;34.70;99.90;;;;;;5053985;28;20048;-59
2023/06/19 12:26:29;;;;;;;10.25;6.75;;;35.20;99.90;;;;;;5053925;28;20357;-59
2023/06/19 12:28:55;;;;;;;10.18;7.45;;;35.40;99.90;;;;;;5052704;28;20029;-60
2023/06/19 12:31:20;;;;;;;7.05;6.32;;;35.40;99.90;;;;;;5053919;28;20040;-59
2023/06/19 12:33:48;;;;;;;10.40;6.78;;;36.00;99.90;;;;;;5053709;28;20036;-60
2023/06/19 12:36:16;;;;;;;7.85;6.53;;;36.10;99.90;;;;;;5052485;28;20029;-60